sensor_id;sensor_type;location;lat;lon;timestamp;P1;durP1;ratioP1;P2;durP2;ratioP2
38397;SDS011;24179;52.094;4.408;2024-02-26T00:00:34;7.70;;;4.75;;
38397;SDS011;24179;52.094;4.408;2024-02-26T00:03:35;8.00;;;4.60;;
38397;SDS011;24179;52.094;4.408;2024-02-26T00:06:35;6.67;;;4.87;;
38397;SDS011;24179;52.094;4.408;2024-02-26T00:09:36;9.75;;;5.00;;
38397;SDS011;24179;52.094;4.408;2024-02-26T00:12:37;8.33;;;5.37;;
38397;SDS011;24179;52.094;4.408;2024-02-26T00:15:39;6.05;;;4.75;;
38397;SDS011;24179;52.094;4.408;2024-02-26T00:18:39;6.43;;;4.97;;
38397;SDS011;24179;52.094;4.408;2024-02-26T00:21:40;7.43;;;5.70;;
38397;SDS011;24179;52.094;4.408;2024-02-26T00:24:46;15.98;;;6.47;;
38397;SDS011;24179;52.094;4.408;2024-02-26T00:27:47;9.50;;;5.30;;
38397;SDS011;24179;52.094;4.408;2024-02-26T00:30:47;12.63;;;5.73;;
38397;SDS011;24179;52.094;4.408;2024-02-26T00:33:48;6.97;;;4.90;;
38397;SDS011;24179;52.094;4.408;2024-02-26T00:36:48;8.83;;;5.30;;
38397;SDS011;24179;52.094;4.408;2024-02-26T00:39:49;10.53;;;5.07;;
38397;SDS011;24179;52.094;4.408;2024-02-26T00:42:50;6.90;;;5.50;;
38397;SDS011;24179;52.094;4.408;2024-02-26T00:45:50;7.83;;;4.97;;
38397;SDS011;24179;52.094;4.408;2024-02-26T00:48:52;7.13;;;5.22;;
38397;SDS011;24179;52.094;4.408;2024-02-26T00:51:53;7.73;;;5.17;;
38397;SDS011;24179;52.094;4.408;2024-02-26T00:54:55;7.00;;;4.88;;
38397;SDS011;24179;52.094;4.408;2024-02-26T00:57:56;7.23;;;5.10;;
38397;SDS011;24179;52.094;4.408;2024-02-26T01:00:57;6.60;;;5.00;;
38397;SDS011;24179;52.094;4.408;2024-02-26T01:03:57;5.87;;;4.80;;
38397;SDS011;24179;52.094;4.408;2024-02-26T01:06:58;7.93;;;4.63;;
38397;SDS011;24179;52.094;4.408;2024-02-26T01:09:58;8.43;;;4.90;;
38397;SDS011;24179;52.094;4.408;2024-02-26T01:12:59;5.60;;;4.50;;
38397;SDS011;24179;52.094;4.408;2024-02-26T01:16:00;5.88;;;4.50;;
38397;SDS011;24179;52.094;4.408;2024-02-26T01:19:01;7.10;;;4.90;;
38397;SDS011;24179;52.094;4.408;2024-02-26T01:22:03;9.27;;;4.93;;
38397;SDS011;24179;52.094;4.408;2024-02-26T01:25:03;5.30;;;4.20;;
38397;SDS011;24179;52.094;4.408;2024-02-26T01:28:04;12.50;;;4.90;;
38397;SDS011;24179;52.094;4.408;2024-02-26T01:31:05;8.13;;;4.47;;
38397;SDS011;24179;52.094;4.408;2024-02-26T01:34:08;6.50;;;4.68;;
38397;SDS011;24179;52.094;4.408;2024-02-26T01:37:09;10.73;;;5.13;;
38397;SDS011;24179;52.094;4.408;2024-02-26T01:40:10;6.77;;;4.67;;
38397;SDS011;24179;52.094;4.408;2024-02-26T01:43:11;8.48;;;5.05;;
38397;SDS011;24179;52.094;4.408;2024-02-26T01:46:12;6.60;;;5.10;;
38397;SDS011;24179;52.094;4.408;2024-02-26T01:49:17;7.43;;;5.18;;
38397;SDS011;24179;52.094;4.408;2024-02-26T01:52:17;7.85;;;5.35;;
38397;SDS011;24179;52.094;4.408;2024-02-26T01:55:18;7.67;;;5.00;;
38397;SDS011;24179;52.094;4.408;2024-02-26T02:01:20;13.10;;;5.88;;
38397;SDS011;24179;52.094;4.408;2024-02-26T02:04:27;8.98;;;5.82;;
38397;SDS011;24179;52.094;4.408;2024-02-26T02:07:28;7.95;;;5.70;;
38397;SDS011;24179;52.094;4.408;2024-02-26T02:10:29;7.60;;;5.43;;
38397;SDS011;24179;52.094;4.408;2024-02-26T02:13:29;10.00;;;6.00;;
38397;SDS011;24179;52.094;4.408;2024-02-26T02:16:30;9.40;;;6.30;;
38397;SDS011;24179;52.094;4.408;2024-02-26T02:19:31;20.33;;;8.25;;
38397;SDS011;24179;52.094;4.408;2024-02-26T02:22:31;11.97;;;6.80;;
38397;SDS011;24179;52.094;4.408;2024-02-26T02:25:32;14.77;;;7.43;;
38397;SDS011;24179;52.094;4.408;2024-02-26T02:28:33;13.60;;;6.97;;
38397;SDS011;24179;52.094;4.408;2024-02-26T02:31:33;12.97;;;7.07;;
38397;SDS011;24179;52.094;4.408;2024-02-26T02:34:34;14.25;;;7.57;;
38397;SDS011;24179;52.094;4.408;2024-02-26T02:37:36;12.73;;;6.95;;
38397;SDS011;24179;52.094;4.408;2024-02-26T02:40:37;9.52;;;6.90;;
38397;SDS011;24179;52.094;4.408;2024-02-26T02:43:37;11.60;;;7.07;;
38397;SDS011;24179;52.094;4.408;2024-02-26T02:46:38;16.20;;;7.80;;
38397;SDS011;24179;52.094;4.408;2024-02-26T02:49:39;10.20;;;7.13;;
38397;SDS011;24179;52.094;4.408;2024-02-26T02:52:39;9.83;;;6.53;;
38397;SDS011;24179;52.094;4.408;2024-02-26T02:55:40;10.30;;;6.03;;
38397;SDS011;24179;52.094;4.408;2024-02-26T02:58:41;9.40;;;6.50;;
38397;SDS011;24179;52.094;4.408;2024-02-26T03:01:41;9.63;;;5.83;;
38397;SDS011;24179;52.094;4.408;2024-02-26T03:04:42;13.93;;;7.40;;
38397;SDS011;24179;52.094;4.408;2024-02-26T03:07:43;12.47;;;6.17;;
38397;SDS011;24179;52.094;4.408;2024-02-26T03:10:45;7.30;;;5.37;;
38397;SDS011;24179;52.094;4.408;2024-02-26T03:13:46;8.13;;;5.68;;
38397;SDS011;24179;52.094;4.408;2024-02-26T03:16:47;8.30;;;6.23;;
38397;SDS011;24179;52.094;4.408;2024-02-26T03:19:47;14.57;;;7.27;;
38397;SDS011;24179;52.094;4.408;2024-02-26T03:22:53;9.82;;;5.93;;
38397;SDS011;24179;52.094;4.408;2024-02-26T03:25:53;7.97;;;6.00;;
38397;SDS011;24179;52.094;4.408;2024-02-26T03:28:55;15.45;;;7.15;;
38397;SDS011;24179;52.094;4.408;2024-02-26T03:31:56;10.63;;;6.57;;
38397;SDS011;24179;52.094;4.408;2024-02-26T03:34:57;17.77;;;7.30;;
38397;SDS011;24179;52.094;4.408;2024-02-26T03:37:58;9.52;;;6.20;;
38397;SDS011;24179;52.094;4.408;2024-02-26T03:40:58;9.97;;;6.80;;
38397;SDS011;24179;52.094;4.408;2024-02-26T03:43:59;9.63;;;6.70;;
38397;SDS011;24179;52.094;4.408;2024-02-26T03:47:00;17.33;;;7.90;;
38397;SDS011;24179;52.094;4.408;2024-02-26T03:50:00;14.20;;;7.43;;
38397;SDS011;24179;52.094;4.408;2024-02-26T03:53:01;14.03;;;7.80;;
38397;SDS011;24179;52.094;4.408;2024-02-26T03:56:05;10.70;;;6.93;;
38397;SDS011;24179;52.094;4.408;2024-02-26T03:59:06;12.80;;;7.35;;
38397;SDS011;24179;52.094;4.408;2024-02-26T04:02:06;10.40;;;6.57;;
38397;SDS011;24179;52.094;4.408;2024-02-26T04:05:10;14.10;;;7.77;;
38397;SDS011;24179;52.094;4.408;2024-02-26T04:08:11;16.08;;;8.52;;
38397;SDS011;24179;52.094;4.408;2024-02-26T04:11:12;17.70;;;9.10;;
38397;SDS011;24179;52.094;4.408;2024-02-26T04:14:13;17.02;;;8.85;;
38397;SDS011;24179;52.094;4.408;2024-02-26T04:17:13;17.47;;;8.17;;
38397;SDS011;24179;52.094;4.408;2024-02-26T04:20:14;16.60;;;9.33;;
38397;SDS011;24179;52.094;4.408;2024-02-26T04:23:16;17.00;;;8.65;;
38397;SDS011;24179;52.094;4.408;2024-02-26T04:26:17;16.13;;;8.43;;
38397;SDS011;24179;52.094;4.408;2024-02-26T04:29:17;17.07;;;8.87;;
38397;SDS011;24179;52.094;4.408;2024-02-26T04:32:18;15.20;;;8.50;;
38397;SDS011;24179;52.094;4.408;2024-02-26T04:35:19;17.13;;;8.70;;
38397;SDS011;24179;52.094;4.408;2024-02-26T04:38:19;19.00;;;9.33;;
38397;SDS011;24179;52.094;4.408;2024-02-26T04:41:20;15.90;;;8.97;;
38397;SDS011;24179;52.094;4.408;2024-02-26T04:44:23;18.37;;;8.83;;
38397;SDS011;24179;52.094;4.408;2024-02-26T04:47:23;15.90;;;8.98;;
38397;SDS011;24179;52.094;4.408;2024-02-26T04:50:24;18.90;;;9.60;;
38397;SDS011;24179;52.094;4.408;2024-02-26T04:53:24;20.67;;;9.20;;
38397;SDS011;24179;52.094;4.408;2024-02-26T04:56:25;20.10;;;10.30;;
38397;SDS011;24179;52.094;4.408;2024-02-26T04:59:26;19.13;;;9.60;;
38397;SDS011;24179;52.094;4.408;2024-02-26T05:02:26;19.17;;;9.73;;
38397;SDS011;24179;52.094;4.408;2024-02-26T05:05:27;16.77;;;9.52;;
38397;SDS011;24179;52.094;4.408;2024-02-26T05:08:28;20.83;;;10.00;;
38397;SDS011;24179;52.094;4.408;2024-02-26T05:11:30;20.70;;;10.15;;
38397;SDS011;24179;52.094;4.408;2024-02-26T05:14:31;22.17;;;9.93;;
38397;SDS011;24179;52.094;4.408;2024-02-26T05:17:31;21.23;;;9.80;;
38397;SDS011;24179;52.094;4.408;2024-02-26T05:20:32;20.93;;;10.27;;
38397;SDS011;24179;52.094;4.408;2024-02-26T05:23:35;21.90;;;10.60;;
38397;SDS011;24179;52.094;4.408;2024-02-26T05:26:35;19.23;;;9.63;;
38397;SDS011;24179;52.094;4.408;2024-02-26T05:29:36;23.33;;;10.53;;
38397;SDS011;24179;52.094;4.408;2024-02-26T05:32:36;25.43;;;10.70;;
38397;SDS011;24179;52.094;4.408;2024-02-26T05:35:37;21.83;;;11.07;;
38397;SDS011;24179;52.094;4.408;2024-02-26T05:38:38;24.80;;;11.27;;
38397;SDS011;24179;52.094;4.408;2024-02-26T05:41:39;24.17;;;11.63;;
38397;SDS011;24179;52.094;4.408;2024-02-26T05:44:39;23.97;;;11.13;;
38397;SDS011;24179;52.094;4.408;2024-02-26T05:47:40;28.10;;;12.57;;
38397;SDS011;24179;52.094;4.408;2024-02-26T05:50:42;24.30;;;11.55;;
38397;SDS011;24179;52.094;4.408;2024-02-26T05:53:43;29.87;;;11.27;;
38397;SDS011;24179;52.094;4.408;2024-02-26T05:56:44;27.42;;;12.25;;
38397;SDS011;24179;52.094;4.408;2024-02-26T05:59:44;26.33;;;11.93;;
38397;SDS011;24179;52.094;4.408;2024-02-26T06:02:45;29.03;;;12.97;;
38397;SDS011;24179;52.094;4.408;2024-02-26T06:05:46;28.57;;;13.23;;
38397;SDS011;24179;52.094;4.408;2024-02-26T06:08:46;29.97;;;13.57;;
38397;SDS011;24179;52.094;4.408;2024-02-26T06:11:47;25.50;;;12.53;;
38397;SDS011;24179;52.094;4.408;2024-02-26T06:14:47;33.13;;;14.27;;
38397;SDS011;24179;52.094;4.408;2024-02-26T06:17:48;34.70;;;15.10;;
38397;SDS011;24179;52.094;4.408;2024-02-26T06:20:49;31.53;;;13.50;;
38397;SDS011;24179;52.094;4.408;2024-02-26T06:23:49;34.40;;;15.27;;
38397;SDS011;24179;52.094;4.408;2024-02-26T06:26:50;36.95;;;14.02;;
38397;SDS011;24179;52.094;4.408;2024-02-26T06:29:51;32.40;;;14.53;;
38397;SDS011;24179;52.094;4.408;2024-02-26T06:32:51;30.97;;;13.87;;
38397;SDS011;24179;52.094;4.408;2024-02-26T06:35:52;33.10;;;14.53;;
38397;SDS011;24179;52.094;4.408;2024-02-26T06:38:53;29.97;;;14.33;;
38397;SDS011;24179;52.094;4.408;2024-02-26T06:41:54;30.17;;;14.02;;
38397;SDS011;24179;52.094;4.408;2024-02-26T06:45:01;34.78;;;15.30;;
38397;SDS011;24179;52.094;4.408;2024-02-26T06:48:01;30.75;;;15.18;;
38397;SDS011;24179;52.094;4.408;2024-02-26T06:51:02;38.15;;;16.50;;
38397;SDS011;24179;52.094;4.408;2024-02-26T06:54:03;31.67;;;15.23;;
38397;SDS011;24179;52.094;4.408;2024-02-26T06:57:04;37.80;;;16.67;;
38397;SDS011;24179;52.094;4.408;2024-02-26T07:00:04;30.33;;;14.87;;
38397;SDS011;24179;52.094;4.408;2024-02-26T07:03:05;32.80;;;15.65;;
38397;SDS011;24179;52.094;4.408;2024-02-26T07:06:06;34.13;;;15.23;;
38397;SDS011;24179;52.094;4.408;2024-02-26T07:09:07;34.57;;;16.20;;
38397;SDS011;24179;52.094;4.408;2024-02-26T07:12:07;35.33;;;16.03;;
38397;SDS011;24179;52.094;4.408;2024-02-26T07:15:08;26.40;;;13.63;;
38397;SDS011;24179;52.094;4.408;2024-02-26T07:18:09;31.02;;;14.57;;
38397;SDS011;24179;52.094;4.408;2024-02-26T07:21:11;32.03;;;14.50;;
38397;SDS011;24179;52.094;4.408;2024-02-26T07:24:12;26.45;;;14.50;;
38397;SDS011;24179;52.094;4.408;2024-02-26T07:27:12;30.10;;;13.40;;
38397;SDS011;24179;52.094;4.408;2024-02-26T07:30:13;28.90;;;14.90;;
38397;SDS011;24179;52.094;4.408;2024-02-26T07:33:14;27.73;;;13.20;;
38397;SDS011;24179;52.094;4.408;2024-02-26T07:36:15;32.10;;;14.57;;
38397;SDS011;24179;52.094;4.408;2024-02-26T07:39:15;25.83;;;13.37;;
38397;SDS011;24179;52.094;4.408;2024-02-26T07:42:16;30.77;;;13.57;;
38397;SDS011;24179;52.094;4.408;2024-02-26T07:45:16;29.37;;;13.17;;
38397;SDS011;24179;52.094;4.408;2024-02-26T07:48:19;24.48;;;12.27;;
38397;SDS011;24179;52.094;4.408;2024-02-26T07:51:20;23.60;;;12.90;;
38397;SDS011;24179;52.094;4.408;2024-02-26T07:54:22;23.10;;;12.07;;
38397;SDS011;24179;52.094;4.408;2024-02-26T07:57:23;21.73;;;12.33;;
38397;SDS011;24179;52.094;4.408;2024-02-26T08:00:23;23.20;;;11.23;;
38397;SDS011;24179;52.094;4.408;2024-02-26T08:03:24;21.27;;;10.97;;
38397;SDS011;24179;52.094;4.408;2024-02-26T08:06:24;15.97;;;9.93;;
38397;SDS011;24179;52.094;4.408;2024-02-26T08:09:25;19.38;;;11.05;;
38397;SDS011;24179;52.094;4.408;2024-02-26T08:12:26;18.40;;;9.50;;
38397;SDS011;24179;52.094;4.408;2024-02-26T08:15:26;17.63;;;9.60;;
38397;SDS011;24179;52.094;4.408;2024-02-26T08:18:27;18.40;;;9.17;;
38397;SDS011;24179;52.094;4.408;2024-02-26T08:21:27;17.50;;;9.60;;
38397;SDS011;24179;52.094;4.408;2024-02-26T08:24:28;14.27;;;8.20;;
38397;SDS011;24179;52.094;4.408;2024-02-26T08:27:28;14.93;;;8.17;;
38397;SDS011;24179;52.094;4.408;2024-02-26T08:30:29;13.93;;;8.20;;
38397;SDS011;24179;52.094;4.408;2024-02-26T08:33:30;14.07;;;7.87;;
38397;SDS011;24179;52.094;4.408;2024-02-26T08:36:31;14.63;;;7.63;;
38397;SDS011;24179;52.094;4.408;2024-02-26T08:39:33;12.45;;;7.72;;
38397;SDS011;24179;52.094;4.408;2024-02-26T08:42:34;11.73;;;7.87;;
38397;SDS011;24179;52.094;4.408;2024-02-26T08:45:34;14.77;;;7.90;;
38397;SDS011;24179;52.094;4.408;2024-02-26T08:48:35;13.33;;;7.67;;
38397;SDS011;24179;52.094;4.408;2024-02-26T08:51:40;9.17;;;6.77;;
38397;SDS011;24179;52.094;4.408;2024-02-26T08:54:42;9.32;;;7.22;;
38397;SDS011;24179;52.094;4.408;2024-02-26T08:57:43;9.57;;;6.67;;
38397;SDS011;24179;52.094;4.408;2024-02-26T09:00:43;13.13;;;7.30;;
38397;SDS011;24179;52.094;4.408;2024-02-26T09:03:44;9.73;;;7.10;;
38397;SDS011;24179;52.094;4.408;2024-02-26T09:06:45;17.33;;;7.60;;
38397;SDS011;24179;52.094;4.408;2024-02-26T09:09:46;10.00;;;6.80;;
38397;SDS011;24179;52.094;4.408;2024-02-26T09:12:46;13.10;;;7.63;;
38397;SDS011;24179;52.094;4.408;2024-02-26T09:15:47;9.73;;;6.50;;
38397;SDS011;24179;52.094;4.408;2024-02-26T09:18:47;10.03;;;6.83;;
38397;SDS011;24179;52.094;4.408;2024-02-26T09:21:48;14.73;;;7.30;;
38397;SDS011;24179;52.094;4.408;2024-02-26T09:24:48;12.10;;;7.37;;
38397;SDS011;24179;52.094;4.408;2024-02-26T09:27:51;9.43;;;6.97;;
38397;SDS011;24179;52.094;4.408;2024-02-26T09:30:52;10.77;;;6.72;;
38397;SDS011;24179;52.094;4.408;2024-02-26T09:33:54;12.00;;;7.18;;
38397;SDS011;24179;52.094;4.408;2024-02-26T09:36:55;10.73;;;6.83;;
38397;SDS011;24179;52.094;4.408;2024-02-26T09:39:55;9.33;;;6.50;;
38397;SDS011;24179;52.094;4.408;2024-02-26T09:42:59;14.27;;;7.17;;
38397;SDS011;24179;52.094;4.408;2024-02-26T09:46:01;8.57;;;7.15;;
38397;SDS011;24179;52.094;4.408;2024-02-26T09:49:02;15.18;;;7.38;;
38397;SDS011;24179;52.094;4.408;2024-02-26T09:52:04;8.67;;;6.20;;
38397;SDS011;24179;52.094;4.408;2024-02-26T09:55:06;8.68;;;6.70;;
38397;SDS011;24179;52.094;4.408;2024-02-26T09:58:09;10.63;;;6.35;;
38397;SDS011;24179;52.094;4.408;2024-02-26T10:01:11;12.02;;;7.40;;
38397;SDS011;24179;52.094;4.408;2024-02-26T10:04:13;7.70;;;5.95;;
38397;SDS011;24179;52.094;4.408;2024-02-26T10:07:14;7.45;;;6.15;;
38397;SDS011;24179;52.094;4.408;2024-02-26T10:10:16;8.93;;;6.78;;
38397;SDS011;24179;52.094;4.408;2024-02-26T10:13:17;9.68;;;6.97;;
38397;SDS011;24179;52.094;4.408;2024-02-26T10:16:20;17.70;;;8.35;;
38397;SDS011;24179;52.094;4.408;2024-02-26T10:19:27;13.32;;;7.53;;
38397;SDS011;24179;52.094;4.408;2024-02-26T10:22:29;11.40;;;7.15;;
38397;SDS011;24179;52.094;4.408;2024-02-26T10:25:30;9.00;;;6.83;;
38397;SDS011;24179;52.094;4.408;2024-02-26T10:28:31;10.38;;;7.10;;
38397;SDS011;24179;52.094;4.408;2024-02-26T10:31:33;9.32;;;7.00;;
38397;SDS011;24179;52.094;4.408;2024-02-26T10:34:34;8.70;;;6.60;;
38397;SDS011;24179;52.094;4.408;2024-02-26T10:37:38;12.48;;;8.00;;
38397;SDS011;24179;52.094;4.408;2024-02-26T10:40:41;9.20;;;7.60;;
38397;SDS011;24179;52.094;4.408;2024-02-26T10:43:43;7.45;;;6.47;;
38397;SDS011;24179;52.094;4.408;2024-02-26T10:46:44;8.70;;;6.65;;
38397;SDS011;24179;52.094;4.408;2024-02-26T10:49:49;14.77;;;7.80;;
38397;SDS011;24179;52.094;4.408;2024-02-26T10:52:50;9.48;;;6.78;;
38397;SDS011;24179;52.094;4.408;2024-02-26T10:55:54;15.88;;;7.90;;
38397;SDS011;24179;52.094;4.408;2024-02-26T10:58:58;10.80;;;7.55;;
38397;SDS011;24179;52.094;4.408;2024-02-26T11:01:58;10.20;;;6.70;;
38397;SDS011;24179;52.094;4.408;2024-02-26T11:05:03;16.75;;;7.40;;
38397;SDS011;24179;52.094;4.408;2024-02-26T11:08:05;12.82;;;7.45;;
38397;SDS011;24179;52.094;4.408;2024-02-26T11:11:06;13.50;;;7.18;;
38397;SDS011;24179;52.094;4.408;2024-02-26T11:14:08;12.75;;;7.25;;
38397;SDS011;24179;52.094;4.408;2024-02-26T11:17:09;12.23;;;7.10;;
38397;SDS011;24179;52.094;4.408;2024-02-26T11:20:12;7.93;;;6.30;;
38397;SDS011;24179;52.094;4.408;2024-02-26T11:23:14;13.85;;;7.22;;
38397;SDS011;24179;52.094;4.408;2024-02-26T11:26:15;7.67;;;6.67;;
38397;SDS011;24179;52.094;4.408;2024-02-26T11:29:19;8.35;;;7.55;;
38397;SDS011;24179;52.094;4.408;2024-02-26T11:32:22;8.27;;;6.80;;
38397;SDS011;24179;52.094;4.408;2024-02-26T11:35:23;11.60;;;7.13;;
38397;SDS011;24179;52.094;4.408;2024-02-26T11:38:24;7.68;;;6.20;;
38397;SDS011;24179;52.094;4.408;2024-02-26T11:41:26;8.98;;;7.10;;
38397;SDS011;24179;52.094;4.408;2024-02-26T11:44:30;9.23;;;6.35;;
38397;SDS011;24179;52.094;4.408;2024-02-26T11:47:31;7.28;;;6.57;;
38397;SDS011;24179;52.094;4.408;2024-02-26T11:50:35;8.50;;;6.70;;
38397;SDS011;24179;52.094;4.408;2024-02-26T11:53:38;8.13;;;6.22;;
38397;SDS011;24179;52.094;4.408;2024-02-26T11:56:48;8.88;;;6.55;;
38397;SDS011;24179;52.094;4.408;2024-02-26T11:59:50;7.20;;;6.38;;
38397;SDS011;24179;52.094;4.408;2024-02-26T12:02:52;6.97;;;6.28;;
38397;SDS011;24179;52.094;4.408;2024-02-26T12:06:01;7.28;;;6.50;;
38397;SDS011;24179;52.094;4.408;2024-02-26T12:09:01;7.77;;;6.70;;
38397;SDS011;24179;52.094;4.408;2024-02-26T12:12:03;6.67;;;6.07;;
38397;SDS011;24179;52.094;4.408;2024-02-26T12:15:06;8.10;;;6.63;;
38397;SDS011;24179;52.094;4.408;2024-02-26T12:18:15;7.07;;;6.38;;
38397;SDS011;24179;52.094;4.408;2024-02-26T12:21:18;7.78;;;6.50;;
38397;SDS011;24179;52.094;4.408;2024-02-26T12:24:19;7.18;;;6.47;;
38397;SDS011;24179;52.094;4.408;2024-02-26T12:27:20;7.50;;;6.80;;
38397;SDS011;24179;52.094;4.408;2024-02-26T12:30:21;7.83;;;5.77;;
38397;SDS011;24179;52.094;4.408;2024-02-26T12:33:22;14.98;;;6.88;;
38397;SDS011;24179;52.094;4.408;2024-02-26T12:36:26;7.10;;;6.20;;
38397;SDS011;24179;52.094;4.408;2024-02-26T12:39:27;6.85;;;6.25;;
38397;SDS011;24179;52.094;4.408;2024-02-26T12:42:28;7.22;;;6.32;;
38397;SDS011;24179;52.094;4.408;2024-02-26T12:45:30;7.78;;;7.07;;
38397;SDS011;24179;52.094;4.408;2024-02-26T12:48:31;7.07;;;6.38;;
38397;SDS011;24179;52.094;4.408;2024-02-26T12:51:32;9.10;;;6.30;;
38397;SDS011;24179;52.094;4.408;2024-02-26T12:54:36;6.50;;;5.80;;
38397;SDS011;24179;52.094;4.408;2024-02-26T12:57:39;9.48;;;6.38;;
38397;SDS011;24179;52.094;4.408;2024-02-26T13:00:43;10.30;;;6.15;;
38397;SDS011;24179;52.094;4.408;2024-02-26T13:03:43;8.00;;;5.97;;
38397;SDS011;24179;52.094;4.408;2024-02-26T13:06:45;8.75;;;5.90;;
38397;SDS011;24179;52.094;4.408;2024-02-26T13:09:47;7.20;;;5.85;;
38397;SDS011;24179;52.094;4.408;2024-02-26T13:12:48;6.90;;;6.17;;
38397;SDS011;24179;52.094;4.408;2024-02-26T13:16:14;7.45;;;6.65;;
38397;SDS011;24179;52.094;4.408;2024-02-26T13:19:14;6.45;;;5.75;;
38397;SDS011;24179;52.094;4.408;2024-02-26T13:22:14;8.70;;;6.80;;
38397;SDS011;24179;52.094;4.408;2024-02-26T13:25:20;9.40;;;5.93;;
38397;SDS011;24179;52.094;4.408;2024-02-26T13:28:20;7.82;;;5.80;;
38397;SDS011;24179;52.094;4.408;2024-02-26T13:31:22;7.00;;;6.30;;
38397;SDS011;24179;52.094;4.408;2024-02-26T13:34:23;7.20;;;6.50;;
38397;SDS011;24179;52.094;4.408;2024-02-26T13:37:27;8.38;;;6.68;;
38397;SDS011;24179;52.094;4.408;2024-02-26T13:40:28;7.73;;;6.67;;
38397;SDS011;24179;52.094;4.408;2024-02-26T13:43:29;9.10;;;6.30;;
38397;SDS011;24179;52.094;4.408;2024-02-26T13:46:29;8.33;;;6.27;;
38397;SDS011;24179;52.094;4.408;2024-02-26T13:49:32;7.05;;;6.35;;
38397;SDS011;24179;52.094;4.408;2024-02-26T13:52:33;12.30;;;6.80;;
38397;SDS011;24179;52.094;4.408;2024-02-26T13:55:34;7.07;;;6.47;;
38397;SDS011;24179;52.094;4.408;2024-02-26T13:58:35;11.25;;;6.40;;
38397;SDS011;24179;52.094;4.408;2024-02-26T14:01:35;12.20;;;7.33;;
38397;SDS011;24179;52.094;4.408;2024-02-26T14:04:39;7.45;;;6.40;;
38397;SDS011;24179;52.094;4.408;2024-02-26T14:07:39;7.23;;;6.40;;
38397;SDS011;24179;52.094;4.408;2024-02-26T14:10:40;7.65;;;5.80;;
38397;SDS011;24179;52.094;4.408;2024-02-26T14:13:41;9.37;;;6.37;;
38397;SDS011;24179;52.094;4.408;2024-02-26T14:16:42;7.83;;;6.00;;
38397;SDS011;24179;52.094;4.408;2024-02-26T14:19:43;7.32;;;5.93;;
38397;SDS011;24179;52.094;4.408;2024-02-26T14:22:44;6.75;;;6.07;;
38397;SDS011;24179;52.094;4.408;2024-02-26T14:25:44;6.93;;;6.17;;
38397;SDS011;24179;52.094;4.408;2024-02-26T14:28:45;7.13;;;6.07;;
38397;SDS011;24179;52.094;4.408;2024-02-26T14:31:46;15.35;;;7.22;;
38397;SDS011;24179;52.094;4.408;2024-02-26T14:34:47;8.87;;;6.10;;
38397;SDS011;24179;52.094;4.408;2024-02-26T14:37:47;16.67;;;7.47;;
38397;SDS011;24179;52.094;4.408;2024-02-26T14:40:50;9.18;;;6.30;;
38397;SDS011;24179;52.094;4.408;2024-02-26T14:43:50;8.67;;;6.53;;
38397;SDS011;24179;52.094;4.408;2024-02-26T14:46:51;7.90;;;6.57;;
38397;SDS011;24179;52.094;4.408;2024-02-26T14:49:52;8.10;;;6.00;;
38397;SDS011;24179;52.094;4.408;2024-02-26T14:52:52;7.70;;;6.90;;
38397;SDS011;24179;52.094;4.408;2024-02-26T14:55:53;7.67;;;6.80;;
38397;SDS011;24179;52.094;4.408;2024-02-26T14:58:54;7.37;;;6.67;;
38397;SDS011;24179;52.094;4.408;2024-02-26T15:01:54;10.27;;;6.73;;
38397;SDS011;24179;52.094;4.408;2024-02-26T15:04:55;11.47;;;7.07;;
38397;SDS011;24179;52.094;4.408;2024-02-26T15:07:55;6.87;;;6.13;;
38397;SDS011;24179;52.094;4.408;2024-02-26T15:10:56;8.33;;;7.30;;
38397;SDS011;24179;52.094;4.408;2024-02-26T15:13:56;7.87;;;6.43;;
38397;SDS011;24179;52.094;4.408;2024-02-26T15:16:57;8.10;;;6.60;;
38397;SDS011;24179;52.094;4.408;2024-02-26T15:19:58;8.43;;;6.87;;
38397;SDS011;24179;52.094;4.408;2024-02-26T15:22:59;7.07;;;6.18;;
38397;SDS011;24179;52.094;4.408;2024-02-26T15:26:00;21.73;;;8.33;;
38397;SDS011;24179;52.094;4.408;2024-02-26T15:29:00;13.57;;;6.67;;
38397;SDS011;24179;52.094;4.408;2024-02-26T15:32:01;14.20;;;7.00;;
38397;SDS011;24179;52.094;4.408;2024-02-26T15:35:01;8.03;;;6.50;;
38397;SDS011;24179;52.094;4.408;2024-02-26T15:38:02;13.73;;;7.18;;
38397;SDS011;24179;52.094;4.408;2024-02-26T15:41:10;14.20;;;6.88;;
38397;SDS011;24179;52.094;4.408;2024-02-26T15:44:12;16.40;;;7.10;;
38397;SDS011;24179;52.094;4.408;2024-02-26T15:47:13;14.13;;;7.40;;
38397;SDS011;24179;52.094;4.408;2024-02-26T15:50:13;11.57;;;7.40;;
38397;SDS011;24179;52.094;4.408;2024-02-26T15:53:14;16.33;;;7.87;;
38397;SDS011;24179;52.094;4.408;2024-02-26T15:56:15;14.17;;;6.80;;
38397;SDS011;24179;52.094;4.408;2024-02-26T16:02:17;8.10;;;6.10;;
38397;SDS011;24179;52.094;4.408;2024-02-26T16:05:18;7.87;;;6.40;;
38397;SDS011;24179;52.094;4.408;2024-02-26T16:08:19;11.65;;;7.30;;
38397;SDS011;24179;52.094;4.408;2024-02-26T16:11:21;16.10;;;7.97;;
38397;SDS011;24179;52.094;4.408;2024-02-26T16:14:36;6.72;;;6.10;;
38397;SDS011;24179;52.094;4.408;2024-02-26T16:17:49;7.93;;;6.85;;
38397;SDS011;24179;52.094;4.408;2024-02-26T16:20:51;12.40;;;7.50;;
38397;SDS011;24179;52.094;4.408;2024-02-26T16:23:54;13.43;;;7.30;;
38397;SDS011;24179;52.094;4.408;2024-02-26T16:26:54;10.00;;;6.60;;
38397;SDS011;24179;52.094;4.408;2024-02-26T16:29:55;8.97;;;6.67;;
38397;SDS011;24179;52.094;4.408;2024-02-26T16:32:56;7.57;;;6.70;;
38397;SDS011;24179;52.094;4.408;2024-02-26T16:35:56;11.40;;;6.53;;
38397;SDS011;24179;52.094;4.408;2024-02-26T16:38:57;10.53;;;6.50;;
38397;SDS011;24179;52.094;4.408;2024-02-26T16:41:58;9.97;;;5.97;;
38397;SDS011;24179;52.094;4.408;2024-02-26T16:44:58;9.93;;;6.27;;
38397;SDS011;24179;52.094;4.408;2024-02-26T16:47:59;11.27;;;6.35;;
38397;SDS011;24179;52.094;4.408;2024-02-26T16:51:00;8.77;;;6.17;;
38397;SDS011;24179;52.094;4.408;2024-02-26T16:54:02;8.50;;;5.68;;
38397;SDS011;24179;52.094;4.408;2024-02-26T16:57:03;6.53;;;5.30;;
38397;SDS011;24179;52.094;4.408;2024-02-26T17:00:04;7.05;;;6.20;;
38397;SDS011;24179;52.094;4.408;2024-02-26T17:03:05;8.80;;;5.35;;
38397;SDS011;24179;52.094;4.408;2024-02-26T17:06:06;7.73;;;5.83;;
38397;SDS011;24179;52.094;4.408;2024-02-26T17:12:08;7.93;;;5.23;;
38397;SDS011;24179;52.094;4.408;2024-02-26T17:15:09;9.23;;;5.47;;
38397;SDS011;24179;52.094;4.408;2024-02-26T17:18:10;11.13;;;6.13;;
38397;SDS011;24179;52.094;4.408;2024-02-26T17:21:17;8.55;;;5.75;;
38397;SDS011;24179;52.094;4.408;2024-02-26T17:24:17;12.07;;;6.10;;
38397;SDS011;24179;52.094;4.408;2024-02-26T17:27:18;8.23;;;5.33;;
38397;SDS011;24179;52.094;4.408;2024-02-26T17:30:19;6.80;;;4.77;;
38397;SDS011;24179;52.094;4.408;2024-02-26T17:33:19;8.87;;;4.83;;
38397;SDS011;24179;52.094;4.408;2024-02-26T17:36:20;10.27;;;5.17;;
38397;SDS011;24179;52.094;4.408;2024-02-26T17:39:20;11.43;;;5.57;;
38397;SDS011;24179;52.094;4.408;2024-02-26T17:42:21;9.17;;;5.00;;
38397;SDS011;24179;52.094;4.408;2024-02-26T17:45:22;5.70;;;4.70;;
38397;SDS011;24179;52.094;4.408;2024-02-26T17:51:24;9.73;;;5.00;;
38397;SDS011;24179;52.094;4.408;2024-02-26T17:54:24;8.60;;;4.80;;
38397;SDS011;24179;52.094;4.408;2024-02-26T17:57:26;5.18;;;4.68;;
38397;SDS011;24179;52.094;4.408;2024-02-26T18:00:27;11.88;;;4.97;;
38397;SDS011;24179;52.094;4.408;2024-02-26T18:03:28;7.68;;;4.00;;
38397;SDS011;24179;52.094;4.408;2024-02-26T18:06:29;4.63;;;4.00;;
38397;SDS011;24179;52.094;4.408;2024-02-26T18:09:29;5.77;;;3.70;;
38397;SDS011;24179;52.094;4.408;2024-02-26T18:12:30;6.63;;;4.10;;